ADDS METAR Data INFO
IDs: Format: Raw Decoded Include TAF

Data at: 2304 UTC 21 Feb 2018

KCKP 212255Z AUTO 14005KT 10SM BKN110 M05/M12 A3058 RMK AO2 T10551116
KCKP 212235Z AUTO 00000KT 10SM BKN110 M05/M12 A3058 RMK AO2 T10511123
KCKP 212215Z AUTO 00000KT 10SM CLR M05/M13 A3057 RMK AO2 T10551129
KCKP 212155Z AUTO 00000KT 10SM CLR M05/M13 A3058 RMK AO2 T10511126
KCKP 212135Z AUTO 00000KT 10SM CLR M05/M13 A3058 RMK AO2 T10541127
KCKP 212115Z AUTO 00000KT 10SM CLR M05/M13 A3058 RMK AO2 T10541128
KCKP 212055Z AUTO 09003KT 10SM CLR M06/M12 A3059 RMK AO2 T10561123
KCKP 212035Z AUTO 00000KT 10SM CLR M06/M14 A3060 RMK AO2 T10571137
KCKP 212015Z AUTO 00000KT 10SM CLR M06/M13 A3059 RMK AO2 T10601129
KCKP 211955Z AUTO 14004KT 10SM CLR M06/M13 A3060 RMK AO2 T10611127
KCKP 211935Z AUTO 16004KT 10SM CLR M06/M13 A3061 RMK AO2 T10611126
KCKP 211915Z AUTO 16003KT 10SM CLR M06/M14 A3061 RMK AO2 T10621139
KCKP 211855Z AUTO 20003KT 10SM CLR M07/M14 A3062 RMK AO2 T10681137
KCKP 211835Z AUTO 27003KT 10SM CLR M07/M14 A3063 RMK AO2 T10741140
KCKP 211815Z AUTO 00000KT 10SM CLR M08/M14 A3063 RMK AO2 T10771138
KCKP 211755Z AUTO 00000KT 10SM CLR M08/M15 A3064 RMK AO2 T10821148 11082 21167
KCKP 211735Z AUTO 19003KT 10SM CLR M08/M13 A3063 RMK AO2 T10851133
KCKP 211715Z AUTO 00000KT 10SM CLR M09/M14 A3064 RMK AO2 T10911139
KCKP 211655Z AUTO 00000KT 10SM CLR M10/M14 A3065 RMK AO2 T10971142
KCKP 211635Z AUTO 22003KT 10SM CLR M11/M15 A3065 RMK AO2 T11081151
KCKP 211615Z AUTO 00000KT 10SM CLR M11/M15 A3065 RMK AO2 T11101150
KCKP 211555Z AUTO 00000KT 10SM CLR M12/M16 A3063 RMK AO2 T11201156
KCKP 211535Z AUTO 00000KT 10SM CLR M13/M16 A3063 RMK AO2 T11281160
KCKP 211515Z AUTO 00000KT 10SM CLR M13/M16 A3062 RMK AO2 T11351163
KCKP 211455Z AUTO 00000KT 10SM CLR M14/M17 A3061 RMK AO2 T11441169
KCKP 211435Z AUTO 20003KT 10SM CLR M15/M17 A3060 RMK AO2 T11491173
KCKP 211415Z AUTO 00000KT 10SM CLR M16/M18 A3060 RMK AO2 T11561176
KCKP 211355Z AUTO 00000KT 10SM CLR M17/M18 A3059 RMK AO2 T11661184
KCKP 211335Z AUTO 00000KT 10SM CLR M16/M18 A3058 RMK AO2 T11651185
KCKP 211315Z AUTO 00000KT 10SM CLR M17/M19 A3057 RMK AO2 T11671190
KCKP 211255Z AUTO 00000KT 10SM CLR M16/M19 A3056 RMK AO2 T11651187
KCKP 210755Z AUTO 30006KT 10SM CLR M15/M17 A3049 RMK AO2 T11461166
KCKP 210735Z AUTO 30006KT 10SM CLR M14/M16 A3048 RMK AO2 T11431165
KCKP 210715Z AUTO 31007KT 10SM CLR M14/M16 A3047 RMK AO2 T11401163
KCKP 210655Z AUTO 31006KT 10SM CLR M14/M16 A3046 RMK AO2 T11391161
KCKP 210635Z AUTO 31005KT 10SM CLR M14/M16 A3045 RMK AO2 T11391161
KCKP 210615Z AUTO 30006KT 10SM CLR M14/M16 A3045 RMK AO2 T11381160
KCKP 210555Z AUTO 31005KT 10SM CLR M14/M16 A3044 RMK AO2 T11361158 11102 21136 410701136
KCKP 201515Z AUTO 32008G14KT 7SM -SN BKN015 OVC035 M10/M12 A3001 RMK AO2 T11031120
KCKP 201455Z AUTO 31007KT 10SM -SN BKN015 OVC035 M10/M12 A3000 RMK AO2 T11051123
KCKP 201435Z AUTO 31005KT 7SM -SN BKN015 OVC035 M10/M12 A3000 RMK AO2 T11051120
KCKP 201415Z AUTO 31006KT 7SM -SN BKN015 OVC035 M10/M12 A2998 RMK AO2 T11031120
KCKP 201355Z AUTO 30006KT 10SM -SN BKN015 OVC035 M10/M12 A3000 RMK AO2 T11021118
KCKP 201335Z AUTO 30007KT 10SM SCT013 OVC035 M10/M12 A2996 RMK AO2 T11001116
KCKP 201315Z AUTO 33008KT 10SM SCT013 OVC035 M10/M11 A2992 RMK AO2 T10971111
KCKP 201255Z AUTO 33007KT 10SM SCT013 OVC035 M09/M11 A2992 RMK AO2 T10941109
KCKP 201235Z AUTO 32005KT 10SM OVC035 M09/M11 A2994 RMK AO2 T10911106
KCKP 201215Z AUTO 33007KT 10SM OVC033 M09/M10 A2992 RMK AO2 T10891103
KCKP 201155Z AUTO 33007KT 10SM SCT019 OVC033 M09/M10 A2992 RMK AO2 T10881102 11070 21088
KCKP 201135Z AUTO 33007KT 10SM BKN017 OVC033 M08/M10 A2990 RMK AO2 T10851097
KCKP 201115Z AUTO 33007KT 10SM SCT013 OVC019 M08/M09 A2990 RMK AO2 T10851095